Berkeley Township, New Jersey
Current Conditions -  °F | °C
As of 11:15 PM on Wednesday 22 Oct 2014 (Local Time) from KMJX Reporting Station
Broken Clouds Broken Clouds  
Wind Chill: 52°   Ceiling: 2400
Heat Index: 52°   Visibility: 8mi
Dew Point: 48°   Wind: 8mph
Humidity: 88%   Direction: 350°N
Pressure: 29.73"   Gusts: 17mph
Location:  39.9559°N, 74.2574°W
Report Text: KMJX 230315Z AUTO 35007G15KT 8SM FEW013 SCT018 BKN024 11/09 A2973 RMK AO1
Loading
Personal Weather Stations






























Interactive Weather Map New forecast layout! Learn more

10-Day Weather Forecast

Advertisements
Track Severe Weather on mobile